Time;durP1;ratioP1;P1;durP2;ratioP2;P2;SDS_P1;SDS_P2;PMS_P1;PMS_P2;Temp;Humidity;BMP_temperature;BMP_pressure;BME280_temperature;BME280_humidity;BME280_pressure;Samples;Min_cycle;Max_cycle;Signal;HPM_P1;HPM_P2
2023/12/07 00:02:06;;;;;;;20.83;12.68;;;;;;;-0.18;100.00;101861.34;5044732;28;20045;-70
2023/12/07 00:04:33;;;;;;;41.63;28.23;;;;;;;-0.24;100.00;101862.88;5046595;28;20091;-70
2023/12/07 00:07:00;;;;;;;40.33;23.52;;;;;;;-0.29;100.00;101860.13;5039439;28;20041;-70
2023/12/07 00:09:27;;;;;;;43.08;26.70;;;;;;;-0.32;100.00;101853.16;5028793;28;20033;-70
2023/12/07 00:11:55;;;;;;;22.05;13.35;;;;;;;-0.35;100.00;101854.78;5029845;28;20044;-70
2023/12/07 00:14:22;;;;;;;46.00;29.10;;;;;;;-0.39;100.00;101858.09;5029150;28;20107;-70
2023/12/07 00:16:49;;;;;;;26.33;14.70;;;;;;;-0.42;100.00;101855.44;5026541;28;20046;-70
2023/12/07 00:19:16;;;;;;;22.95;13.63;;;;;;;-0.46;100.00;101854.47;5018321;28;20073;-71
2023/12/07 00:21:43;;;;;;;49.25;32.58;;;;;;;-0.50;100.00;101852.59;5029403;28;20595;-71
2023/12/07 00:24:10;;;;;;;26.63;15.98;;;;;;;-0.55;100.00;101851.56;5029966;28;20080;-70
2023/12/07 00:26:38;;;;;;;28.40;13.35;;;;;;;-0.63;100.00;101852.19;5029727;28;20037;-70
2023/12/07 00:29:05;;;;;;;49.30;31.10;;;;;;;-0.68;100.00;101851.19;5024964;28;20033;-70
2023/12/07 00:31:32;;;;;;;42.20;29.58;;;;;;;-0.74;100.00;101848.38;5034836;28;20785;-70
2023/12/07 00:34:00;;;;;;;20.48;12.40;;;;;;;-0.79;100.00;101860.31;5029935;28;20049;-70
2023/12/07 00:36:27;;;;;;;43.10;28.48;;;;;;;-0.84;100.00;101851.50;5029623;28;20073;-70
2023/12/07 00:38:54;;;;;;;43.97;29.45;;;;;;;-0.85;100.00;101848.03;5038985;28;20065;-70
2023/12/07 00:41:21;;;;;;;47.65;31.10;;;;;;;-0.88;100.00;101841.88;5030265;28;20127;-71
2023/12/07 00:43:48;;;;;;;19.40;11.63;;;;;;;-0.94;100.00;101840.84;5034997;28;20128;-70
2023/12/07 00:46:15;;;;;;;25.52;12.23;;;;;;;-1.05;100.00;101834.41;5047832;28;20049;-70
2023/12/07 00:48:42;;;;;;;21.15;11.90;;;;;;;-1.15;100.00;101841.00;5029422;28;20497;-70
2023/12/07 00:51:09;;;;;;;45.85;28.30;;;;;;;-1.19;100.00;101852.06;5032463;28;20049;-70
2023/12/07 00:53:36;;;;;;;26.85;13.15;;;;;;;-1.25;100.00;101860.50;5019126;28;20037;-71
2023/12/07 00:56:04;;;;;;;135.88;47.22;;;;;;;-1.31;100.00;101865.47;5032889;28;20413;-70
2023/12/07 00:58:31;;;;;;;26.50;12.70;;;;;;;-1.36;100.00;101868.72;5043543;28;20512;-71
2023/12/07 01:00:59;;;;;;;20.83;11.68;;;;;;;-1.36;100.00;101866.16;5035683;28;20696;-72
2023/12/07 01:03:26;;;;;;;24.75;13.00;;;;;;;-1.31;100.00;101864.56;5035207;28;20076;-72
2023/12/07 01:05:53;;;;;;;17.58;10.80;;;;;;;-1.28;100.00;101864.69;5035720;28;20041;-72
2023/12/07 01:08:20;;;;;;;22.27;12.93;;;;;;;-1.29;100.00;101853.47;5040590;28;20041;-71
2023/12/07 01:10:47;;;;;;;24.42;12.68;;;;;;;-1.29;100.00;101861.25;5048287;28;20045;-71
2023/12/07 01:13:14;;;;;;;19.35;10.55;;;;;;;-1.34;100.00;101867.09;5029634;28;20038;-71
2023/12/07 01:15:41;;;;;;;21.13;12.40;;;;;;;-1.41;100.00;101863.41;5028509;28;20107;-72
2023/12/07 01:18:08;;;;;;;19.42;12.23;;;;;;;-1.49;100.00;101851.91;5023555;28;20076;-72
2023/12/07 01:20:35;;;;;;;44.22;29.42;;;;;;;-1.52;100.00;101863.00;5026229;28;20071;-72
2023/12/07 01:23:02;;;;;;;23.13;11.93;;;;;;;-1.57;100.00;101865.41;5026012;28;20042;-72
2023/12/07 01:25:29;;;;;;;19.05;11.23;;;;;;;-1.63;100.00;101866.94;5009542;28;20046;-70
2023/12/07 01:27:56;;;;;;;22.55;10.70;;;;;;;-1.70;100.00;101860.66;5015476;28;20128;-70
2023/12/07 01:30:23;;;;;;;20.67;10.40;;;;;;;-1.75;100.00;101868.22;5041443;28;20041;-70
2023/12/07 01:32:51;;;;;;;21.58;11.65;;;;;;;-1.78;100.00;101878.47;5027392;28;20147;-71
2023/12/07 01:35:18;;;;;;;41.40;25.85;;;;;;;-1.79;100.00;101868.06;5041852;28;20044;-70
2023/12/07 01:37:45;;;;;;;38.25;25.38;;;;;;;-1.78;100.00;101867.25;5036063;28;20128;-70
2023/12/07 01:40:14;;;;;;;20.85;11.32;;;;;;;-1.78;100.00;101875.88;5028626;28;20129;-69
2023/12/07 01:42:53;;;;;;;23.98;11.52;;;;;;;-1.80;100.00;101876.66;5028427;28;20045;-70
2023/12/07 01:45:20;;;;;;;26.52;12.88;;;;;;;-1.76;100.00;101891.44;5027908;28;20087;-70
2023/12/07 01:47:50;;;;;;;35.25;13.40;;;;;;;-1.69;100.00;101889.97;5041968;28;20051;-70
2023/12/07 01:50:23;;;;;;;29.33;12.48;;;;;;;-1.67;100.00;101889.19;5037348;28;20061;-70
2023/12/07 01:53:01;;;;;;;26.95;12.93;;;;;;;-1.64;100.00;101899.66;5026730;28;20124;-70
2023/12/07 01:55:31;;;;;;;30.60;12.93;;;;;;;-1.59;100.00;101887.78;5038890;28;20045;-70
2023/12/07 01:57:59;;;;;;;58.13;16.92;;;;;;;-1.49;100.00;101888.13;5028021;28;20436;-71
2023/12/07 02:00:27;;;;;;;153.45;50.58;;;;;;;-1.33;100.00;101889.53;5027699;28;20049;-71
2023/12/07 02:02:55;;;;;;;30.10;14.25;;;;;;;-1.30;100.00;101890.53;5019997;28;20045;-71
2023/12/07 02:05:22;;;;;;;30.73;13.85;;;;;;;-1.31;100.00;101886.19;5034636;28;20051;-71
2023/12/07 02:07:49;;;;;;;52.83;31.40;;;;;;;-1.34;100.00;101890.38;5036991;28;20041;-71
2023/12/07 02:10:18;;;;;;;60.65;32.83;;;;;;;-1.32;100.00;101891.31;5030893;28;20068;-71
2023/12/07 02:12:48;;;;;;;29.50;12.80;;;;;;;-1.33;100.00;101893.00;5027266;28;20045;-71
2023/12/07 02:15:15;;;;;;;25.25;12.55;;;;;;;-1.32;100.00;101892.19;5028155;28;20068;-72
2023/12/07 02:18:10;;;;;;;24.40;11.88;;;;;;;-1.34;100.00;101891.22;5024255;28;20128;-71
2023/12/07 02:21:21;;;;;;;45.00;27.50;;;;;;;-1.35;100.00;101888.59;5034508;28;20042;-71
2023/12/07 02:23:53;;;;;;;27.80;12.88;;;;;;;-1.41;100.00;101900.47;5030187;28;20053;-72
2023/12/07 02:26:30;;;;;;;24.75;11.23;;;;;;;-1.45;100.00;101898.63;5028336;28;20051;-71
2023/12/07 02:28:57;;;;;;;23.77;11.15;;;;;;;-1.47;100.00;101892.50;5025606;28;20489;-71
2023/12/07 02:31:25;;;;;;;28.50;11.30;;;;;;;-1.50;100.00;101891.53;5027050;28;20061;-72
2023/12/07 02:33:53;;;;;;;23.17;12.38;;;;;;;-1.54;100.00;101887.94;5026594;28;20045;-71
2023/12/07 02:36:25;;;;;;;16.98;10.13;;;;;;;-1.56;100.00;101887.00;5027221;28;20099;-71
2023/12/07 02:38:58;;;;;;;19.42;10.57;;;;;;;-1.57;100.00;101886.09;5025833;28;20055;-71
2023/12/07 02:41:26;;;;;;;20.73;10.30;;;;;;;-1.61;100.00;101892.00;5027243;28;20045;-71
2023/12/07 02:43:54;;;;;;;36.22;23.98;;;;;;;-1.61;100.00;101883.34;5038052;28;20072;-72
2023/12/07 02:46:21;;;;;;;30.15;12.93;;;;;;;-1.61;100.00;101889.44;5029362;28;20069;-72
2023/12/07 02:48:48;;;;;;;25.23;11.65;;;;;;;-1.62;100.00;101885.06;5039786;28;20812;-71
2023/12/07 02:51:15;;;;;;;41.17;12.63;;;;;;;-1.61;100.00;101883.34;5048486;28;20041;-71
2023/12/07 02:53:42;;;;;;;41.03;14.15;;;;;;;-1.59;100.00;101890.38;5037900;28;20072;-71
2023/12/07 02:56:10;;;;;;;65.47;32.65;;;;;;;-1.51;100.00;101882.00;5026039;28;20041;-71
2023/12/07 02:58:37;;;;;;;28.73;13.68;;;;;;;-1.45;100.00;101882.19;5026572;28;20049;-71
2023/12/07 03:01:04;;;;;;;268.77;55.80;;;;;;;-1.42;100.00;101874.56;5026027;28;20567;-71
2023/12/07 03:03:31;;;;;;;43.22;12.93;;;;;;;-1.38;100.00;101880.72;5037063;28;20763;-71
2023/12/07 03:05:58;;;;;;;131.82;16.27;;;;;;;-1.33;100.00;101879.19;5030983;28;20045;-71
2023/12/07 03:08:25;;;;;;;171.68;38.67;;;;;;;-1.29;100.00;101878.47;5043206;28;20052;-71
2023/12/07 03:10:52;;;;;;;70.43;14.70;;;;;;;-1.24;100.00;101874.34;5027425;28;20121;-71
2023/12/07 03:13:20;;;;;;;132.80;17.08;;;;;;;-1.20;100.00;101875.31;5027671;28;20052;-71
2023/12/07 03:15:47;;;;;;;181.45;18.15;;;;;;;-1.17;100.00;101872.84;5028895;28;20126;-71
2023/12/07 03:18:14;;;;;;;233.55;41.70;;;;;;;-1.12;100.00;101881.63;5025895;28;20080;-71
2023/12/07 03:20:41;;;;;;;173.75;18.50;;;;;;;-1.06;100.00;101875.78;5026193;28;20124;-71
2023/12/07 03:23:09;;;;;;;92.45;16.38;;;;;;;-1.04;100.00;101872.41;5026788;28;20045;-71
2023/12/07 03:25:36;;;;;;;155.93;41.25;;;;;;;-1.03;100.00;101869.00;5029034;28;20501;-71
2023/12/07 03:28:03;;;;;;;117.90;16.20;;;;;;;-1.00;100.00;101866.53;5035979;28;20076;-71
2023/12/07 03:30:30;;;;;;;69.15;14.45;;;;;;;-0.99;100.00;101863.13;5031331;28;20390;-71
2023/12/07 03:32:57;;;;;;;424.20;71.00;;;;;;;-0.96;100.00;101870.97;5028869;28;20041;-70
2023/12/07 03:35:24;;;;;;;124.70;18.83;;;;;;;-0.96;100.00;101876.16;5047035;28;20621;-70
2023/12/07 03:37:51;;;;;;;520.13;89.07;;;;;;;-0.95;100.00;101872.72;5027963;28;20219;-71
2023/12/07 03:40:18;;;;;;;359.92;71.40;;;;;;;-0.94;100.00;101878.81;5044324;28;20073;-70
2023/12/07 03:42:45;;;;;;;77.30;16.50;;;;;;;-0.96;100.00;101880.47;5047611;28;20128;-71
2023/12/07 03:45:22;;;;;;;65.22;14.07;;;;;;;-0.99;100.00;101876.06;5049460;28;20680;-71
2023/12/07 03:47:49;;;;;;;73.10;15.82;;;;;;;-1.01;100.00;101882.88;5038663;28;20041;-71
2023/12/07 03:50:17;;;;;;;79.53;14.68;;;;;;;-0.99;100.00;101889.00;5033187;28;20033;-71
2023/12/07 03:52:44;;;;;;;47.25;16.25;;;;;;;-0.99;100.00;101889.00;5029640;28;20559;-71
2023/12/07 03:55:11;;;;;;;205.35;55.38;;;;;;;-0.94;100.00;101883.97;5031242;28;20092;-71
2023/12/07 03:57:38;;;;;;;101.38;38.75;;;;;;;-0.94;100.00;101887.44;5029481;28;20076;-72
2023/12/07 04:00:08;;;;;;;91.80;18.35;;;;;;;-0.92;100.00;101896.97;5046212;28;20041;-71
2023/12/07 04:02:35;;;;;;;67.30;15.63;;;;;;;-0.95;100.00;101895.16;5028423;28;20042;-71
2023/12/07 04:05:02;;;;;;;40.53;14.45;;;;;;;-0.94;100.00;101904.69;5033794;28;20082;-71
2023/12/07 04:07:29;;;;;;;215.75;56.78;;;;;;;-0.94;100.00;101894.34;5038842;28;20073;-71
2023/12/07 04:09:59;;;;;;;41.53;14.75;;;;;;;-0.92;100.00;101907.31;5030854;28;20413;-72
2023/12/07 04:12:27;;;;;;;71.57;15.60;;;;;;;-0.93;100.00;101906.47;5041537;28;20044;-71
2023/12/07 04:14:54;;;;;;;299.52;62.22;;;;;;;-0.92;100.00;101900.47;5037035;28;20071;-71
2023/12/07 04:17:21;;;;;;;116.97;37.85;;;;;;;-0.89;100.00;101910.91;5029682;28;20596;-71
2023/12/07 04:19:48;;;;;;;133.77;41.28;;;;;;;-0.88;100.00;101920.44;5029782;28;20058;-71
2023/12/07 04:22:15;;;;;;;60.78;15.38;;;;;;;-0.89;100.00;101916.06;5030236;28;20095;-71
2023/12/07 04:24:42;;;;;;;63.38;15.95;;;;;;;-0.90;100.00;101922.06;5044524;28;20123;-71
2023/12/07 04:27:10;;;;;;;50.90;16.55;;;;;;;-0.89;100.00;101915.22;5065477;28;20041;-71
2023/12/07 04:29:37;;;;;;;236.10;50.42;;;;;;;-0.88;100.00;101919.56;5037143;28;20632;-71
2023/12/07 04:32:06;;;;;;;118.95;40.67;;;;;;;-0.86;100.00;101910.09;5030436;28;20056;-71
2023/12/07 04:34:34;;;;;;;195.20;44.65;;;;;;;-0.83;100.00;101920.59;5030354;28;20049;-71
2023/12/07 04:37:01;;;;;;;170.57;17.95;;;;;;;-0.82;100.00;101924.94;5034939;28;20110;-71
2023/12/07 04:39:28;;;;;;;172.40;43.35;;;;;;;-0.82;100.00;101922.34;5037892;28;20104;-71
2023/12/07 04:41:55;;;;;;;175.27;20.40;;;;;;;-0.82;100.00;101918.06;5031433;28;20041;-71
2023/12/07 04:44:24;;;;;;;81.25;16.10;;;;;;;-0.82;100.00;101931.00;5029172;28;20049;-71
2023/12/07 04:46:51;;;;;;;59.67;15.77;;;;;;;-0.81;100.00;101937.06;5046223;28;20612;-71
2023/12/07 04:49:18;;;;;;;74.25;15.68;;;;;;;-0.78;100.00;101937.19;5028409;28;20139;-70
2023/12/07 04:51:46;;;;;;;277.25;57.25;;;;;;;-0.75;100.00;101934.66;5027866;28;20091;-71
2023/12/07 04:54:16;;;;;;;70.80;18.95;;;;;;;-0.72;100.00;101936.50;5028034;28;20572;-71
2023/12/07 04:56:46;;;;;;;48.65;15.18;;;;;;;-0.73;100.00;101938.19;5041159;28;20091;-70
2023/12/07 04:59:13;;;;;;;355.38;57.42;;;;;;;-0.71;100.00;101930.50;5028746;28;20053;-70
2023/12/07 05:01:40;;;;;;;79.18;16.95;;;;;;;-0.69;100.00;101936.59;5028551;28;20107;-70
2023/12/07 05:04:08;;;;;;;117.28;36.90;;;;;;;-0.69;100.00;101924.53;5029382;28;20095;-70
2023/12/07 05:06:35;;;;;;;477.35;74.65;;;;;;;-0.66;100.00;101915.97;5047405;28;20451;-70
2023/12/07 05:09:02;;;;;;;96.50;17.42;;;;;;;-0.67;100.00;101920.28;5028921;28;20072;-71
2023/12/07 05:11:30;;;;;;;199.90;46.35;;;;;;;-0.64;100.00;101928.13;5026860;28;20037;-71
2023/12/07 05:13:57;;;;;;;306.10;58.10;;;;;;;-0.61;100.00;101927.34;5046899;28;20047;-71
2023/12/07 05:16:24;;;;;;;126.10;35.60;;;;;;;-0.59;100.00;101925.69;5040432;28;20483;-72
2023/12/07 05:18:51;;;;;;;89.30;16.60;;;;;;;-0.59;100.00;101923.09;5046377;28;20110;-71
2023/12/07 05:21:19;;;;;;;154.93;20.70;;;;;;;-0.59;100.00;101909.28;5042870;28;20037;-71
2023/12/07 05:23:47;;;;;;;191.90;20.17;;;;;;;-0.59;100.00;101906.69;5028664;28;20045;-71
2023/12/07 05:26:14;;;;;;;147.18;20.75;;;;;;;-0.63;100.00;101909.19;5029226;28;20124;-71
2023/12/07 05:28:42;;;;;;;77.82;20.08;;;;;;;-0.61;100.00;101921.31;5032485;28;20049;-71
2023/12/07 05:31:18;;;;;;;358.38;60.85;;;;;;;-0.59;100.00;101914.47;5030797;28;20063;-71
2023/12/07 05:33:45;;;;;;;210.30;41.38;;;;;;;-0.60;100.00;101913.56;5027371;28;20132;-71
2023/12/07 05:36:12;;;;;;;55.80;15.60;;;;;;;-0.59;100.00;101917.06;5035294;28;20128;-71
2023/12/07 05:38:39;;;;;;;125.43;16.38;;;;;;;-0.59;100.00;101907.56;5028286;28;20037;-71
2023/12/07 05:41:06;;;;;;;128.50;18.10;;;;;;;-0.58;100.00;101914.50;5027025;28;20489;-71
2023/12/07 05:43:33;;;;;;;117.88;18.38;;;;;;;-0.61;100.00;101908.34;5028169;28;20468;-71
2023/12/07 05:46:01;;;;;;;155.48;38.58;;;;;;;-0.60;100.00;101913.56;5024501;28;20046;-70
2023/12/07 05:48:28;;;;;;;273.85;44.50;;;;;;;-0.58;100.00;101908.47;5010253;28;20128;-70
2023/12/07 05:50:55;;;;;;;181.48;20.20;;;;;;;-0.61;100.00;101901.44;5024967;28;20053;-70
2023/12/07 05:53:22;;;;;;;498.55;71.82;;;;;;;-0.58;100.00;101901.56;5040565;28;20523;-69
2023/12/07 05:55:52;;;;;;;133.98;17.50;;;;;;;-0.59;100.00;101904.97;5038816;28;20041;-69
2023/12/07 05:58:21;;;;;;;103.35;14.80;;;;;;;-0.56;100.00;101915.44;5025731;28;20136;-69
2023/12/07 06:00:51;;;;;;;127.97;29.98;;;;;;;-0.51;100.00;101911.28;5026245;28;20033;-68
2023/12/07 06:03:18;;;;;;;365.83;57.90;;;;;;;-0.46;100.00;101901.09;5028129;28;20061;-70
2023/12/07 06:05:46;;;;;;;85.65;15.73;;;;;;;-0.38;100.00;101897.03;5030056;28;20054;-70
2023/12/07 06:08:13;;;;;;;53.05;15.27;;;;;;;-0.29;100.00;101895.56;5027465;28;20053;-70
2023/12/07 06:10:40;;;;;;;59.25;16.52;;;;;;;-0.24;100.00;101886.19;5026386;28;20482;-70
2023/12/07 06:13:08;;;;;;;74.25;24.20;;;;;;;-0.21;100.00;101896.66;5027952;28;20310;-70
2023/12/07 06:15:35;;;;;;;43.55;23.75;;;;;;;-0.06;100.00;101899.75;5023978;28;20044;-70
2023/12/07 06:18:03;;;;;;;79.40;26.45;;;;;;;0.09;100.00;101898.44;5027447;28;20056;-70
2023/12/07 06:20:30;;;;;;;195.75;30.00;;;;;;;0.18;100.00;101896.13;5022575;28;20069;-72
2023/12/07 06:22:57;;;;;;;248.90;37.50;;;;;;;0.09;100.00;101895.84;5023749;28;20045;-71
2023/12/07 06:25:25;;;;;;;184.98;32.20;;;;;;;-0.06;100.00;101893.66;5025400;28;20577;-71
2023/12/07 06:27:52;;;;;;;79.53;13.60;;;;;;;-0.21;100.00;101891.50;5028070;28;20076;-71
2023/12/07 06:30:19;;;;;;;239.30;42.13;;;;;;;-0.28;100.00;101897.31;5043975;28;20049;-71
2023/12/07 06:32:46;;;;;;;105.50;28.90;;;;;;;-0.33;100.00;101899.78;5030351;28;20117;-71
2023/12/07 06:35:13;;;;;;;394.00;46.92;;;;;;;-0.39;100.00;101899.56;5025966;28;20124;-71
2023/12/07 06:37:41;;;;;;;256.00;35.65;;;;;;;-0.48;100.00;101903.63;5035711;28;20079;-71
2023/12/07 06:40:09;;;;;;;95.97;15.95;;;;;;;-0.55;100.00;101904.25;5024484;28;20069;-71
2023/12/07 06:42:36;;;;;;;165.63;33.50;;;;;;;-0.61;100.00;101908.34;5040469;28;20088;-71
2023/12/07 06:45:05;;;;;;;91.57;14.95;;;;;;;-0.61;100.00;101909.22;5057904;28;20422;-71
2023/12/07 06:47:32;;;;;;;84.10;30.52;;;;;;;-0.63;100.00;101909.19;5026578;28;20056;-71
2023/12/07 06:49:59;;;;;;;72.75;28.00;;;;;;;-0.58;100.00;101913.66;5037983;28;20053;-71
2023/12/07 06:52:26;;;;;;;52.33;12.77;;;;;;;-0.57;100.00;101913.69;5023301;28;20137;-71
2023/12/07 06:54:53;;;;;;;207.43;18.92;;;;;;;-0.56;100.00;101910.28;5026356;28;20038;-71
2023/12/07 06:57:21;;;;;;;139.60;15.43;;;;;;;-0.57;100.00;101910.22;5039320;28;20052;-71
2023/12/07 06:59:49;;;;;;;180.45;33.75;;;;;;;-0.57;100.00;101911.09;5025899;28;20109;-71
2023/12/07 07:02:17;;;;;;;70.45;13.48;;;;;;;-0.56;100.00;101910.28;5030163;28;20092;-71
2023/12/07 07:04:44;;;;;;;281.27;41.42;;;;;;;-0.58;100.00;101904.16;5034773;28;20045;-71
2023/12/07 07:07:12;;;;;;;440.85;57.47;;;;;;;-0.59;100.00;101907.56;5045311;28;20041;-70
2023/12/07 07:09:39;;;;;;;231.27;38.20;;;;;;;-0.58;100.00;101905.88;5030784;28;20076;-70
2023/12/07 07:12:06;;;;;;;74.45;16.08;;;;;;;-0.58;100.00;101908.47;5030628;28;20107;-70
2023/12/07 07:14:34;;;;;;;52.63;14.32;;;;;;;-0.57;100.00;101908.50;5030766;28;20045;-70
2023/12/07 07:17:01;;;;;;;78.28;14.55;;;;;;;-0.55;100.00;101904.25;5030854;28;20805;-70
2023/12/07 07:19:29;;;;;;;71.55;14.13;;;;;;;-0.50;100.00;101902.69;5044528;28;20151;-70
2023/12/07 07:21:56;;;;;;;119.13;26.63;;;;;;;-0.46;100.00;101903.69;5049818;28;20115;-70
2023/12/07 07:24:23;;;;;;;97.43;24.27;;;;;;;-0.43;100.00;101905.50;5034415;28;20149;-70
2023/12/07 07:26:50;;;;;;;120.97;27.90;;;;;;;-0.41;100.00;101904.69;5042626;28;20040;-71
2023/12/07 07:29:17;;;;;;;67.28;12.02;;;;;;;-0.39;100.00;101909.91;5050787;28;20056;-70
2023/12/07 07:31:44;;;;;;;80.70;11.32;;;;;;;-0.40;100.00;101903.88;5046310;28;20041;-71
2023/12/07 07:34:11;;;;;;;61.53;11.60;;;;;;;-0.39;100.00;101910.81;5030960;28;20072;-70
2023/12/07 07:36:38;;;;;;;93.80;19.27;;;;;;;-0.36;100.00;101910.03;5030042;28;20049;-70
2023/12/07 07:39:07;;;;;;;60.40;19.70;;;;;;;-0.36;100.00;101916.09;5043084;28;20313;-70
2023/12/07 07:41:36;;;;;;;46.67;18.58;;;;;;;-0.34;100.00;101921.34;5022670;28;20090;-70
2023/12/07 07:44:03;;;;;;;63.08;10.35;;;;;;;-0.34;100.00;101923.91;5037073;28;20038;-70
2023/12/07 07:46:31;;;;;;;27.48;8.30;;;;;;;-0.33;100.00;101920.50;5030926;28;20042;-70
2023/12/07 07:48:58;;;;;;;44.05;8.90;;;;;;;-0.33;100.00;101913.59;5045749;28;20038;-70
2023/12/07 07:51:25;;;;;;;68.25;18.02;;;;;;;-0.30;100.00;101922.31;5034007;28;20136;-70
2023/12/07 07:53:52;;;;;;;108.72;23.98;;;;;;;-0.29;100.00;101927.53;5037114;28;20041;-70
2023/12/07 07:56:21;;;;;;;96.38;22.63;;;;;;;-0.27;100.00;101933.63;5042924;28;20068;-70
2023/12/07 07:58:48;;;;;;;112.03;21.10;;;;;;;-0.28;100.00;101931.00;5049706;28;20052;-70
2023/12/07 08:01:15;;;;;;;208.75;30.33;;;;;;;-0.28;100.00;101924.09;5029413;28;20041;-69
2023/12/07 08:03:43;;;;;;;29.27;8.68;;;;;;;-0.28;100.00;101928.41;5029176;28;20045;-70
2023/12/07 08:06:10;;;;;;;237.13;32.65;;;;;;;-0.27;100.00;101936.22;5038826;28;20115;-70
2023/12/07 08:08:37;;;;;;;114.13;12.68;;;;;;;-0.28;100.00;101936.19;5028632;28;20060;-70
2023/12/07 08:11:05;;;;;;;60.78;9.20;;;;;;;-0.28;100.00;101926.69;5027540;28;20128;-70
2023/12/07 08:13:32;;;;;;;246.77;33.65;;;;;;;-0.25;100.00;101920.72;5023985;28;20415;-70
2023/12/07 08:15:59;;;;;;;65.40;11.70;;;;;;;-0.24;100.00;101925.06;5009003;28;20053;-70
2023/12/07 08:18:26;;;;;;;58.80;21.17;;;;;;;-0.21;100.00;101917.41;5024478;28;20072;-70
2023/12/07 08:20:53;;;;;;;42.03;11.68;;;;;;;-0.16;100.00;101926.22;5029374;28;20051;-70
2023/12/07 08:23:20;;;;;;;60.70;11.60;;;;;;;-0.14;100.00;101918.47;5029397;28;20071;-70
2023/12/07 08:25:48;;;;;;;299.17;35.08;;;;;;;-0.13;100.00;101921.13;5030229;28;20045;-70
2023/12/07 08:28:15;;;;;;;91.22;21.42;;;;;;;-0.13;100.00;101921.13;5030646;28;20073;-70
2023/12/07 08:30:42;;;;;;;92.43;10.57;;;;;;;-0.13;100.00;101913.34;5045542;28;20046;-70
2023/12/07 08:33:09;;;;;;;63.08;9.38;;;;;;;-0.11;100.00;101913.41;5028852;28;20187;-69
2023/12/07 08:35:37;;;;;;;364.67;39.22;;;;;;;-0.09;100.00;101904.84;5044809;28;20041;-69
2023/12/07 08:38:04;;;;;;;91.22;22.60;;;;;;;-0.05;100.00;101905.81;5046837;28;20132;-69
2023/12/07 08:40:31;;;;;;;214.98;27.05;;;;;;;-0.01;100.00;101911.13;5048659;28;20041;-69
2023/12/07 08:42:59;;;;;;;67.68;10.82;;;;;;;0.00;100.00;101917.22;5064960;28;20041;-69
2023/12/07 08:45:25;;;;;;;95.80;11.25;;;;;;;0.01;100.00;101908.56;5049709;28;20435;-69
2023/12/07 08:47:53;;;;;;;191.55;25.63;;;;;;;0.06;100.00;101906.13;5040298;28;20120;-69
2023/12/07 08:50:21;;;;;;;152.80;25.63;;;;;;;0.10;100.00;101907.97;5030057;28;20128;-70
2023/12/07 08:52:48;;;;;;;177.63;28.50;;;;;;;0.12;100.00;101903.72;5042502;28;20052;-70
2023/12/07 08:55:22;;;;;;;;;;;;;;;0.13;100.00;101908.94;5061726;28;20123;-71
2023/12/07 08:57:49;;;;;;;140.48;24.75;;;;;;;0.17;100.00;101909.06;5028265;28;19928;-70
2023/12/07 09:00:17;;;;;;;61.47;11.10;;;;;;;0.19;100.00;101920.34;5045462;28;20046;-69
2023/12/07 09:02:44;;;;;;;62.50;19.48;;;;;;;0.21;100.00;101914.38;5030043;28;20768;-69
2023/12/07 09:05:15;;;;;;;37.08;10.93;;;;;;;0.28;100.00;101925.81;5051496;28;20047;-69
2023/12/07 09:07:42;;;;;;;33.97;10.27;;;;;;;0.32;100.00;101930.25;5049661;28;20098;-69
2023/12/07 09:10:10;;;;;;;103.43;25.10;;;;;;;0.40;100.00;101922.69;5049123;28;20604;-70
2023/12/07 09:12:38;;;;;;;209.02;31.40;;;;;;;0.44;100.00;101916.75;5049134;28;20041;-69
2023/12/07 09:15:07;;;;;;;204.73;31.30;;;;;;;0.49;100.00;101924.69;5049691;28;20103;-70
2023/12/07 09:17:37;;;;;;;40.63;10.82;;;;;;;0.51;100.00;101916.09;5042005;28;20045;-70
2023/12/07 09:20:12;;;;;;;171.70;29.40;;;;;;;0.55;100.00;101917.06;5037497;28;20067;-70
2023/12/07 09:22:44;;;;;;;108.32;25.55;;;;;;;0.57;100.00;101908.47;5046031;28;20033;-70
2023/12/07 09:25:12;;;;;;;484.55;50.00;;;;;;;0.61;100.00;101901.69;5028146;28;20045;-70
2023/12/07 09:27:40;;;;;;;356.88;39.58;;;;;;;0.64;100.00;101903.47;5028178;28;20080;-70
2023/12/07 09:30:12;;;;;;;306.35;38.08;;;;;;;0.66;100.00;101896.63;5029569;28;20519;-70
2023/12/07 09:32:42;;;;;;;266.80;32.83;;;;;;;0.69;100.00;101900.16;5029152;28;20419;-70
2023/12/07 09:35:18;;;;;;;233.10;37.15;;;;;;;0.73;100.00;101903.72;5039364;28;20477;-70
2023/12/07 09:37:47;;;;;;;386.50;40.63;;;;;;;0.76;100.00;101896.03;5048145;28;20148;-70
2023/12/07 09:40:17;;;;;;;127.93;27.02;;;;;;;0.81;100.00;101890.97;5047030;28;20128;-70
2023/12/07 09:42:45;;;;;;;64.32;15.10;;;;;;;0.84;100.00;101884.13;5047882;28;20040;-70
2023/12/07 09:45:14;;;;;;;225.63;38.47;;;;;;;0.88;100.00;101887.69;5050107;28;20059;-70
2023/12/07 09:47:42;;;;;;;310.15;42.63;;;;;;;0.93;100.00;101897.34;5034593;28;20046;-70
2023/12/07 09:50:10;;;;;;;212.45;39.60;;;;;;;0.98;100.00;101900.06;5028950;28;20048;-70
2023/12/07 09:52:37;;;;;;;157.07;42.15;;;;;;;1.05;100.00;101893.31;5048870;28;20033;-70
2023/12/07 09:55:06;;;;;;;340.95;49.10;;;;;;;1.10;100.00;101883.91;5047357;28;20505;-70
2023/12/07 09:57:34;;;;;;;97.32;29.38;;;;;;;1.16;100.00;101891.88;5039634;28;20042;-70
2023/12/07 10:00:02;;;;;;;177.38;35.20;;;;;;;1.22;100.00;101893.75;5029704;28;20041;-70
2023/12/07 10:02:38;;;;;;;154.20;41.35;;;;;;;1.28;100.00;101880.91;5028537;28;20045;-70
2023/12/07 10:05:07;;;;;;;204.35;46.33;;;;;;;1.34;100.00;101875.84;5034305;28;20056;-70
2023/12/07 10:07:37;;;;;;;62.20;18.77;;;;;;;1.39;100.00;101881.16;5048033;28;20037;-71
2023/12/07 10:10:05;;;;;;;85.82;28.70;;;;;;;1.44;100.00;101866.56;5062553;28;20048;-70
2023/12/07 10:12:35;;;;;;;67.15;26.60;;;;;;;1.51;100.00;101865.00;5046767;28;20043;-70
2023/12/07 10:15:13;;;;;;;76.45;28.90;;;;;;;1.57;100.00;101856.47;5048451;28;20049;-71
2023/12/07 10:17:49;;;;;;;69.78;28.35;;;;;;;1.61;100.00;101848.78;5048030;28;20064;-70
2023/12/07 10:20:23;;;;;;;84.28;31.60;;;;;;;1.69;100.00;101843.72;5048512;28;20044;-70
2023/12/07 10:23:08;;;;;;;77.88;29.38;;;;;;;1.77;100.00;101837.00;5042702;28;20604;-70
2023/12/07 10:25:41;;;;;;;72.63;28.05;;;;;;;1.82;100.00;101842.28;5026952;28;20041;-71
2023/12/07 10:28:11;;;;;;;71.60;29.38;;;;;;;1.91;100.00;101839.00;5027710;28;20103;-70
2023/12/07 10:30:41;;;;;;;81.22;28.60;;;;;;;2.00;100.00;101821.00;5026787;28;20055;-71
2023/12/07 10:33:12;;;;;;;73.03;28.45;;;;;;;2.07;100.00;101822.88;5027758;28;20045;-71
2023/12/07 10:35:41;;;;;;;52.38;25.83;;;;;;;2.09;100.00;101817.72;5025699;28;20128;-71
2023/12/07 10:38:11;;;;;;;55.58;27.77;;;;;;;2.18;100.00;101817.88;5028003;28;20053;-71
2023/12/07 10:40:38;;;;;;;51.58;27.40;;;;;;;2.29;100.00;101808.56;5027116;28;20037;-71
2023/12/07 10:43:07;;;;;;;53.67;27.85;;;;;;;2.28;100.00;101796.41;5027873;28;20045;-71
2023/12/07 10:45:37;;;;;;;47.15;26.35;;;;;;;2.29;100.00;101800.78;5027586;28;20076;-70
2023/12/07 10:48:09;;;;;;;48.78;26.08;;;;;;;2.37;100.00;101793.13;5026999;28;20045;-71
2023/12/07 10:50:43;;;;;;;55.17;28.35;;;;;;;2.50;100.00;101781.19;5027447;28;20389;-70
2023/12/07 10:53:51;;;;;;;40.13;22.83;;;;;;;2.64;100.00;101782.34;5027295;28;20037;-70
2023/12/07 10:56:31;;;;;;;52.60;26.40;;;;;;;2.75;100.00;101774.69;5027077;28;20133;-69
2023/12/07 10:58:59;;;;;;;50.55;27.98;;;;;;;2.85;100.00;101762.69;5044269;28;20412;-70
2023/12/07 11:01:26;;;;;;;46.45;24.83;;;;;;;2.96;100.00;101760.28;5041913;28;20095;-69
2023/12/07 11:03:56;;;;;;;48.83;24.00;;;;;;;2.98;100.00;101748.16;5027670;28;20049;-70
2023/12/07 11:06:24;;;;;;;44.50;23.00;;;;;;;3.00;100.00;101746.44;5044163;28;20112;-70
2023/12/07 11:09:00;;;;;;;50.50;29.13;;;;;;;3.04;100.00;101749.97;5046975;28;20132;-70